Corning, Iowa
Current Conditions -  °F | °C
As of 4:35 AM on Thursday 27 Nov 2014 (Local Time) from KCSQ Reporting Station
Overcast Overcast  
Wind Chill:   Ceiling: 1000
Heat Index: 14°   Visibility: 10mi
Dew Point: 10°   Wind: 10mph
Humidity: 86%   Direction: 320°NW
Pressure: 30.46"   Gusts: 17mph
Location:  40.99°N, 94.74°W
Report Text: KCSQ 271035Z AUTO 32009G15KT 10SM OVC010 M10/M12 A3046 RMK AO2
Loading
Personal Weather Stations






























Interactive Weather Map New forecast layout! Learn more

10-Day Weather Forecast

Advertisements
Track Severe Weather on mobile